sensor_id;sensor_type;location;lat;lon;timestamp;temperature;humidity
4697;DHT22;2362;50.780;0.292;2023-03-01T00:00:39;0.70;99.90
4697;DHT22;2362;50.780;0.292;2023-03-01T00:03:05;0.60;99.90
4697;DHT22;2362;50.780;0.292;2023-03-01T00:05:31;0.60;99.90
4697;DHT22;2362;50.780;0.292;2023-03-01T00:07:57;0.60;99.90
4697;DHT22;2362;50.780;0.292;2023-03-01T00:10:23;0.60;99.90
4697;DHT22;2362;50.780;0.292;2023-03-01T00:12:49;0.60;99.90
4697;DHT22;2362;50.780;0.292;2023-03-01T00:15:14;0.50;99.90
4697;DHT22;2362;50.780;0.292;2023-03-01T00:17:40;0.50;99.90
4697;DHT22;2362;50.780;0.292;2023-03-01T00:20:06;0.50;99.90
4697;DHT22;2362;50.780;0.292;2023-03-01T00:22:36;0.40;99.90
4697;DHT22;2362;50.780;0.292;2023-03-01T00:25:03;0.40;99.90
4697;DHT22;2362;50.780;0.292;2023-03-01T00:27:28;0.30;99.90
4697;DHT22;2362;50.780;0.292;2023-03-01T00:29:54;0.30;99.90
4697;DHT22;2362;50.780;0.292;2023-03-01T00:32:20;0.30;99.90
4697;DHT22;2362;50.780;0.292;2023-03-01T00:34:46;0.30;99.90
4697;DHT22;2362;50.780;0.292;2023-03-01T00:37:23;0.20;99.90
4697;DHT22;2362;50.780;0.292;2023-03-01T00:39:49;0.30;99.90
4697;DHT22;2362;50.780;0.292;2023-03-01T00:42:15;0.20;99.90
4697;DHT22;2362;50.780;0.292;2023-03-01T00:44:41;0.30;99.90
4697;DHT22;2362;50.780;0.292;2023-03-01T00:47:07;0.30;99.90
4697;DHT22;2362;50.780;0.292;2023-03-01T00:49:32;0.30;99.90
4697;DHT22;2362;50.780;0.292;2023-03-01T00:51:59;0.20;99.90
4697;DHT22;2362;50.780;0.292;2023-03-01T00:54:26;0.20;99.90
4697;DHT22;2362;50.780;0.292;2023-03-01T00:56:52;0.30;99.90
4697;DHT22;2362;50.780;0.292;2023-03-01T00:59:18;0.20;99.90
4697;DHT22;2362;50.780;0.292;2023-03-01T01:01:43;0.30;99.90
4697;DHT22;2362;50.780;0.292;2023-03-01T01:04:12;0.20;99.90
4697;DHT22;2362;50.780;0.292;2023-03-01T01:06:47;0.20;99.90
4697;DHT22;2362;50.780;0.292;2023-03-01T01:09:14;0.20;99.90
4697;DHT22;2362;50.780;0.292;2023-03-01T01:11:45;0.20;99.90
4697;DHT22;2362;50.780;0.292;2023-03-01T01:14:12;0.20;99.90
4697;DHT22;2362;50.780;0.292;2023-03-01T01:16:38;0.20;99.90
4697;DHT22;2362;50.780;0.292;2023-03-01T01:19:05;0.20;99.90
4697;DHT22;2362;50.780;0.292;2023-03-01T01:21:31;0.20;99.90
4697;DHT22;2362;50.780;0.292;2023-03-01T01:23:57;0.20;99.90
4697;DHT22;2362;50.780;0.292;2023-03-01T01:26:25;0.20;99.90
4697;DHT22;2362;50.780;0.292;2023-03-01T01:28:52;0.10;99.90
4697;DHT22;2362;50.780;0.292;2023-03-01T01:31:19;0.20;99.90
4697;DHT22;2362;50.780;0.292;2023-03-01T01:33:45;0.20;99.90
4697;DHT22;2362;50.780;0.292;2023-03-01T01:36:11;0.20;99.90
4697;DHT22;2362;50.780;0.292;2023-03-01T01:38:38;0.20;99.90
4697;DHT22;2362;50.780;0.292;2023-03-01T01:41:05;0.20;99.90
4697;DHT22;2362;50.780;0.292;2023-03-01T01:43:35;0.20;99.90
4697;DHT22;2362;50.780;0.292;2023-03-01T01:46:10;0.20;99.90
4697;DHT22;2362;50.780;0.292;2023-03-01T01:48:43;0.30;99.90
4697;DHT22;2362;50.780;0.292;2023-03-01T01:51:13;0.30;99.90
4697;DHT22;2362;50.780;0.292;2023-03-01T01:53:47;0.30;99.90
4697;DHT22;2362;50.780;0.292;2023-03-01T01:56:15;0.40;99.90
4697;DHT22;2362;50.780;0.292;2023-03-01T01:58:42;0.40;99.90
4697;DHT22;2362;50.780;0.292;2023-03-01T02:01:09;0.60;99.90
4697;DHT22;2362;50.780;0.292;2023-03-01T02:03:37;0.60;99.90
4697;DHT22;2362;50.780;0.292;2023-03-01T02:06:29;0.80;99.90
4697;DHT22;2362;50.780;0.292;2023-03-01T02:09:04;0.80;99.90
4697;DHT22;2362;50.780;0.292;2023-03-01T02:11:31;1.00;99.90
4697;DHT22;2362;50.780;0.292;2023-03-01T02:14:22;1.10;99.90
4697;DHT22;2362;50.780;0.292;2023-03-01T02:16:51;1.10;99.90
4697;DHT22;2362;50.780;0.292;2023-03-01T02:19:40;1.20;99.90
4697;DHT22;2362;50.780;0.292;2023-03-01T02:22:15;1.20;99.90
4697;DHT22;2362;50.780;0.292;2023-03-01T02:25:07;1.20;99.90
4697;DHT22;2362;50.780;0.292;2023-03-01T02:30:28;1.20;99.90
4697;DHT22;2362;50.780;0.292;2023-03-01T02:32:56;1.20;99.90
4697;DHT22;2362;50.780;0.292;2023-03-01T02:35:30;1.30;99.90
4697;DHT22;2362;50.780;0.292;2023-03-01T02:37:57;1.30;99.90
4697;DHT22;2362;50.780;0.292;2023-03-01T02:40:28;1.30;99.90
4697;DHT22;2362;50.780;0.292;2023-03-01T02:42:57;1.30;99.90
4697;DHT22;2362;50.780;0.292;2023-03-01T02:45:24;1.30;99.90
4697;DHT22;2362;50.780;0.292;2023-03-01T02:47:57;1.30;99.90
4697;DHT22;2362;50.780;0.292;2023-03-01T02:53:07;1.30;99.90
4697;DHT22;2362;50.780;0.292;2023-03-01T02:55:33;1.40;99.90
4697;DHT22;2362;50.780;0.292;2023-03-01T02:58:02;1.40;99.90
4697;DHT22;2362;50.780;0.292;2023-03-01T03:00:38;1.40;99.90
4697;DHT22;2362;50.780;0.292;2023-03-01T03:03:06;1.40;99.90
4697;DHT22;2362;50.780;0.292;2023-03-01T03:05:33;1.50;99.90
4697;DHT22;2362;50.780;0.292;2023-03-01T03:08:00;1.50;99.90
4697;DHT22;2362;50.780;0.292;2023-03-01T03:10:29;1.50;99.90
4697;DHT22;2362;50.780;0.292;2023-03-01T03:13:00;1.60;99.90
4697;DHT22;2362;50.780;0.292;2023-03-01T03:15:27;1.60;99.90
4697;DHT22;2362;50.780;0.292;2023-03-01T03:17:55;1.60;99.90
4697;DHT22;2362;50.780;0.292;2023-03-01T03:20:24;1.70;99.90
4697;DHT22;2362;50.780;0.292;2023-03-01T03:22:52;1.70;99.90
4697;DHT22;2362;50.780;0.292;2023-03-01T03:25:19;1.80;99.90
4697;DHT22;2362;50.780;0.292;2023-03-01T03:27:47;1.80;99.90
4697;DHT22;2362;50.780;0.292;2023-03-01T03:30:16;1.80;99.90
4697;DHT22;2362;50.780;0.292;2023-03-01T03:32:43;1.80;99.90
4697;DHT22;2362;50.780;0.292;2023-03-01T03:35:31;1.80;99.90
4697;DHT22;2362;50.780;0.292;2023-03-01T03:38:05;1.80;99.90
4697;DHT22;2362;50.780;0.292;2023-03-01T03:40:40;1.70;99.90
4697;DHT22;2362;50.780;0.292;2023-03-01T03:43:26;1.70;99.90
4697;DHT22;2362;50.780;0.292;2023-03-01T03:45:52;1.70;99.90
4697;DHT22;2362;50.780;0.292;2023-03-01T03:48:20;1.70;99.90
4697;DHT22;2362;50.780;0.292;2023-03-01T03:50:51;1.60;99.90
4697;DHT22;2362;50.780;0.292;2023-03-01T03:53:17;1.60;99.90
4697;DHT22;2362;50.780;0.292;2023-03-01T03:55:42;1.60;99.90
4697;DHT22;2362;50.780;0.292;2023-03-01T03:58:10;1.50;99.90
4697;DHT22;2362;50.780;0.292;2023-03-01T04:00:42;1.50;99.90
4697;DHT22;2362;50.780;0.292;2023-03-01T04:03:08;1.40;99.90
4697;DHT22;2362;50.780;0.292;2023-03-01T04:05:35;1.30;99.90
4697;DHT22;2362;50.780;0.292;2023-03-01T04:08:01;1.20;99.90
4697;DHT22;2362;50.780;0.292;2023-03-01T04:10:33;1.20;99.90
4697;DHT22;2362;50.780;0.292;2023-03-01T04:12:59;1.10;99.90
4697;DHT22;2362;50.780;0.292;2023-03-01T04:15:26;1.10;99.90
4697;DHT22;2362;50.780;0.292;2023-03-01T04:17:53;1.00;99.90
4697;DHT22;2362;50.780;0.292;2023-03-01T04:20:24;0.90;99.90
4697;DHT22;2362;50.780;0.292;2023-03-01T04:23:04;0.90;99.90
4697;DHT22;2362;50.780;0.292;2023-03-01T04:25:40;0.90;99.90
4697;DHT22;2362;50.780;0.292;2023-03-01T04:28:07;0.90;99.90
4697;DHT22;2362;50.780;0.292;2023-03-01T04:30:33;0.80;99.90
4697;DHT22;2362;50.780;0.292;2023-03-01T04:33:08;0.80;99.90
4697;DHT22;2362;50.780;0.292;2023-03-01T04:35:35;0.80;99.90
4697;DHT22;2362;50.780;0.292;2023-03-01T04:38:01;0.70;99.90
4697;DHT22;2362;50.780;0.292;2023-03-01T04:40:27;0.70;99.90
4697;DHT22;2362;50.780;0.292;2023-03-01T04:42:53;0.60;99.90
4697;DHT22;2362;50.780;0.292;2023-03-01T04:45:19;0.50;99.90
4697;DHT22;2362;50.780;0.292;2023-03-01T04:47:46;0.50;99.90
4697;DHT22;2362;50.780;0.292;2023-03-01T04:50:16;0.40;99.90
4697;DHT22;2362;50.780;0.292;2023-03-01T04:52:44;0.40;99.90
4697;DHT22;2362;50.780;0.292;2023-03-01T04:55:10;0.40;99.90
4697;DHT22;2362;50.780;0.292;2023-03-01T04:57:36;0.30;99.90
4697;DHT22;2362;50.780;0.292;2023-03-01T05:00:02;0.30;99.90
4697;DHT22;2362;50.780;0.292;2023-03-01T05:02:49;0.30;99.90
4697;DHT22;2362;50.780;0.292;2023-03-01T05:05:27;0.30;99.90
4697;DHT22;2362;50.780;0.292;2023-03-01T05:07:57;0.30;99.90
4697;DHT22;2362;50.780;0.292;2023-03-01T05:10:24;0.30;99.90
4697;DHT22;2362;50.780;0.292;2023-03-01T05:12:50;0.30;99.90
4697;DHT22;2362;50.780;0.292;2023-03-01T05:15:17;0.20;99.90
4697;DHT22;2362;50.780;0.292;2023-03-01T05:17:43;0.20;99.90
4697;DHT22;2362;50.780;0.292;2023-03-01T05:20:10;0.30;99.90
4697;DHT22;2362;50.780;0.292;2023-03-01T05:22:36;0.20;99.90
4697;DHT22;2362;50.780;0.292;2023-03-01T05:25:02;0.20;99.90
4697;DHT22;2362;50.780;0.292;2023-03-01T05:27:28;0.20;99.90
4697;DHT22;2362;50.780;0.292;2023-03-01T05:29:55;0.20;99.90
4697;DHT22;2362;50.780;0.292;2023-03-01T05:32:21;0.20;99.90
4697;DHT22;2362;50.780;0.292;2023-03-01T05:34:47;0.20;99.90
4697;DHT22;2362;50.780;0.292;2023-03-01T05:37:13;0.30;99.90
4697;DHT22;2362;50.780;0.292;2023-03-01T05:39:39;0.30;99.90
4697;DHT22;2362;50.780;0.292;2023-03-01T05:42:04;0.20;99.90
4697;DHT22;2362;50.780;0.292;2023-03-01T05:44:30;0.20;99.90
4697;DHT22;2362;50.780;0.292;2023-03-01T05:46:56;0.20;99.90
4697;DHT22;2362;50.780;0.292;2023-03-01T05:49:22;0.10;99.90
4697;DHT22;2362;50.780;0.292;2023-03-01T05:51:52;0.10;99.90
4697;DHT22;2362;50.780;0.292;2023-03-01T05:54:20;0.00;99.90
4697;DHT22;2362;50.780;0.292;2023-03-01T05:56:46;0.00;99.90
4697;DHT22;2362;50.780;0.292;2023-03-01T05:59:12;0.00;99.90
4697;DHT22;2362;50.780;0.292;2023-03-01T06:01:39;0.10;99.90
4697;DHT22;2362;50.780;0.292;2023-03-01T06:04:05;0.10;99.90
4697;DHT22;2362;50.780;0.292;2023-03-01T06:06:35;0.20;99.90
4697;DHT22;2362;50.780;0.292;2023-03-01T06:09:03;0.20;99.90
4697;DHT22;2362;50.780;0.292;2023-03-01T06:11:29;0.20;99.90
4697;DHT22;2362;50.780;0.292;2023-03-01T06:13:55;0.20;99.90
4697;DHT22;2362;50.780;0.292;2023-03-01T06:16:20;0.30;99.90
4697;DHT22;2362;50.780;0.292;2023-03-01T06:18:46;0.30;99.90
4697;DHT22;2362;50.780;0.292;2023-03-01T06:21:11;0.40;99.90
4697;DHT22;2362;50.780;0.292;2023-03-01T06:23:37;0.40;99.90
4697;DHT22;2362;50.780;0.292;2023-03-01T06:26:07;0.40;99.90
4697;DHT22;2362;50.780;0.292;2023-03-01T06:28:34;0.40;99.90
4697;DHT22;2362;50.780;0.292;2023-03-01T06:30:59;0.40;99.90
4697;DHT22;2362;50.780;0.292;2023-03-01T06:33:25;0.50;99.90
4697;DHT22;2362;50.780;0.292;2023-03-01T06:35:53;0.50;99.90
4697;DHT22;2362;50.780;0.292;2023-03-01T06:38:19;0.50;99.90
4697;DHT22;2362;50.780;0.292;2023-03-01T06:40:51;0.60;99.90
4697;DHT22;2362;50.780;0.292;2023-03-01T06:43:16;0.70;99.90
4697;DHT22;2362;50.780;0.292;2023-03-01T06:45:42;0.70;99.90
4697;DHT22;2362;50.780;0.292;2023-03-01T06:48:08;0.70;99.90
4697;DHT22;2362;50.780;0.292;2023-03-01T06:50:34;0.70;99.90
4697;DHT22;2362;50.780;0.292;2023-03-01T06:53:00;0.80;99.90
4697;DHT22;2362;50.780;0.292;2023-03-01T06:55:26;0.80;99.90
4697;DHT22;2362;50.780;0.292;2023-03-01T06:58:00;0.90;99.90
4697;DHT22;2362;50.780;0.292;2023-03-01T07:00:26;1.00;99.90
4697;DHT22;2362;50.780;0.292;2023-03-01T07:02:52;1.10;99.90
4697;DHT22;2362;50.780;0.292;2023-03-01T07:05:18;1.10;99.90
4697;DHT22;2362;50.780;0.292;2023-03-01T07:07:44;1.10;99.90
4697;DHT22;2362;50.780;0.292;2023-03-01T07:10:10;1.10;99.90
4697;DHT22;2362;50.780;0.292;2023-03-01T07:12:36;1.10;99.90
4697;DHT22;2362;50.780;0.292;2023-03-01T07:15:03;1.00;99.90
4697;DHT22;2362;50.780;0.292;2023-03-01T07:17:29;1.10;99.90
4697;DHT22;2362;50.780;0.292;2023-03-01T07:19:54;1.10;99.90
4697;DHT22;2362;50.780;0.292;2023-03-01T07:22:20;1.10;99.90
4697;DHT22;2362;50.780;0.292;2023-03-01T07:24:46;1.10;99.90
4697;DHT22;2362;50.780;0.292;2023-03-01T07:27:11;1.10;99.90
4697;DHT22;2362;50.780;0.292;2023-03-01T07:29:37;1.20;99.90
4697;DHT22;2362;50.780;0.292;2023-03-01T07:32:04;1.30;99.90
4697;DHT22;2362;50.780;0.292;2023-03-01T07:34:30;1.30;99.90
4697;DHT22;2362;50.780;0.292;2023-03-01T07:36:55;1.30;99.90
4697;DHT22;2362;50.780;0.292;2023-03-01T07:39:21;1.40;99.90
4697;DHT22;2362;50.780;0.292;2023-03-01T07:41:49;1.50;99.90
4697;DHT22;2362;50.780;0.292;2023-03-01T07:44:14;1.60;99.90
4697;DHT22;2362;50.780;0.292;2023-03-01T07:46:41;1.60;99.90
4697;DHT22;2362;50.780;0.292;2023-03-01T07:49:07;1.60;99.90
4697;DHT22;2362;50.780;0.292;2023-03-01T07:51:33;1.60;99.90
4697;DHT22;2362;50.780;0.292;2023-03-01T07:53:59;1.70;99.90
4697;DHT22;2362;50.780;0.292;2023-03-01T07:56:24;1.70;99.90
4697;DHT22;2362;50.780;0.292;2023-03-01T07:58:50;1.80;99.90
4697;DHT22;2362;50.780;0.292;2023-03-01T08:01:18;1.90;99.90
4697;DHT22;2362;50.780;0.292;2023-03-01T08:03:44;1.90;99.90
4697;DHT22;2362;50.780;0.292;2023-03-01T08:06:11;2.00;99.90
4697;DHT22;2362;50.780;0.292;2023-03-01T08:08:37;2.00;99.90
4697;DHT22;2362;50.780;0.292;2023-03-01T08:11:05;2.20;99.90
4697;DHT22;2362;50.780;0.292;2023-03-01T08:13:31;2.20;99.90
4697;DHT22;2362;50.780;0.292;2023-03-01T08:16:02;2.30;99.90
4697;DHT22;2362;50.780;0.292;2023-03-01T08:18:28;2.30;99.90
4697;DHT22;2362;50.780;0.292;2023-03-01T08:20:54;2.40;99.90
4697;DHT22;2362;50.780;0.292;2023-03-01T08:23:19;2.50;99.90
4697;DHT22;2362;50.780;0.292;2023-03-01T08:25:45;2.60;99.90
4697;DHT22;2362;50.780;0.292;2023-03-01T08:28:10;2.60;99.90
4697;DHT22;2362;50.780;0.292;2023-03-01T08:30:36;2.70;99.90
4697;DHT22;2362;50.780;0.292;2023-03-01T08:33:02;2.80;99.90
4697;DHT22;2362;50.780;0.292;2023-03-01T08:35:27;2.80;99.90
4697;DHT22;2362;50.780;0.292;2023-03-01T08:37:53;3.00;99.90
4697;DHT22;2362;50.780;0.292;2023-03-01T08:40:19;3.00;99.90
4697;DHT22;2362;50.780;0.292;2023-03-01T08:42:44;3.10;99.90
4697;DHT22;2362;50.780;0.292;2023-03-01T08:45:10;3.10;99.90
4697;DHT22;2362;50.780;0.292;2023-03-01T08:47:37;3.20;99.90
4697;DHT22;2362;50.780;0.292;2023-03-01T08:50:03;3.30;99.90
4697;DHT22;2362;50.780;0.292;2023-03-01T08:52:29;3.30;99.90
4697;DHT22;2362;50.780;0.292;2023-03-01T08:54:56;3.40;99.90
4697;DHT22;2362;50.780;0.292;2023-03-01T08:57:21;3.50;99.90
4697;DHT22;2362;50.780;0.292;2023-03-01T08:59:47;3.50;99.90
4697;DHT22;2362;50.780;0.292;2023-03-01T09:02:15;3.60;99.90
4697;DHT22;2362;50.780;0.292;2023-03-01T09:04:42;3.70;99.90
4697;DHT22;2362;50.780;0.292;2023-03-01T09:07:08;3.80;99.90
4697;DHT22;2362;50.780;0.292;2023-03-01T09:09:34;3.90;99.90
4697;DHT22;2362;50.780;0.292;2023-03-01T09:12:00;3.90;99.90
4697;DHT22;2362;50.780;0.292;2023-03-01T09:14:26;4.00;99.90
4697;DHT22;2362;50.780;0.292;2023-03-01T09:16:52;4.00;99.90
4697;DHT22;2362;50.780;0.292;2023-03-01T09:19:18;4.10;99.90
4697;DHT22;2362;50.780;0.292;2023-03-01T09:21:44;4.20;99.90
4697;DHT22;2362;50.780;0.292;2023-03-01T09:24:19;4.20;99.90
4697;DHT22;2362;50.780;0.292;2023-03-01T09:26:44;4.30;99.90
4697;DHT22;2362;50.780;0.292;2023-03-01T09:29:14;4.40;99.90
4697;DHT22;2362;50.780;0.292;2023-03-01T09:31:41;4.40;99.90
4697;DHT22;2362;50.780;0.292;2023-03-01T09:34:07;4.50;99.90
4697;DHT22;2362;50.780;0.292;2023-03-01T09:36:58;4.60;99.90
4697;DHT22;2362;50.780;0.292;2023-03-01T09:39:27;4.70;99.90
4697;DHT22;2362;50.780;0.292;2023-03-01T09:42:02;4.70;99.90
4697;DHT22;2362;50.780;0.292;2023-03-01T09:44:51;4.80;99.90
4697;DHT22;2362;50.780;0.292;2023-03-01T09:47:23;4.90;99.90
4697;DHT22;2362;50.780;0.292;2023-03-01T09:50:12;5.00;99.90
4697;DHT22;2362;50.780;0.292;2023-03-01T09:53:07;5.10;99.90
4697;DHT22;2362;50.780;0.292;2023-03-01T09:55:45;5.00;99.90
4697;DHT22;2362;50.780;0.292;2023-03-01T10:06:28;4.80;99.90
4697;DHT22;2362;50.780;0.292;2023-03-01T10:11:48;4.80;99.90
4697;DHT22;2362;50.780;0.292;2023-03-01T10:14:38;4.90;99.90
4697;DHT22;2362;50.780;0.292;2023-03-01T10:17:17;5.10;99.90
4697;DHT22;2362;50.780;0.292;2023-03-01T10:19:46;5.30;99.90
4697;DHT22;2362;50.780;0.292;2023-03-01T10:22:30;5.40;99.90
4697;DHT22;2362;50.780;0.292;2023-03-01T10:25:03;5.50;99.90
4697;DHT22;2362;50.780;0.292;2023-03-01T10:27:54;5.70;99.90
4697;DHT22;2362;50.780;0.292;2023-03-01T10:30:21;5.90;99.90
4697;DHT22;2362;50.780;0.292;2023-03-01T10:32:49;6.10;99.90
4697;DHT22;2362;50.780;0.292;2023-03-01T10:35:20;6.10;99.90
4697;DHT22;2362;50.780;0.292;2023-03-01T10:40:33;6.40;99.90
4697;DHT22;2362;50.780;0.292;2023-03-01T10:43:02;6.50;99.90
4697;DHT22;2362;50.780;0.292;2023-03-01T10:45:37;6.60;99.90
4697;DHT22;2362;50.780;0.292;2023-03-01T10:50:30;6.80;99.90
4697;DHT22;2362;50.780;0.292;2023-03-01T10:53:04;7.00;99.90
4697;DHT22;2362;50.780;0.292;2023-03-01T10:55:36;7.00;99.90
4697;DHT22;2362;50.780;0.292;2023-03-01T10:58:20;7.20;99.90
4697;DHT22;2362;50.780;0.292;2023-03-01T11:03:28;7.40;99.90
4697;DHT22;2362;50.780;0.292;2023-03-01T11:08:42;7.40;99.90
4697;DHT22;2362;50.780;0.292;2023-03-01T11:13:59;7.30;99.90
4697;DHT22;2362;50.780;0.292;2023-03-01T11:16:37;7.20;99.90
4697;DHT22;2362;50.780;0.292;2023-03-01T11:21:47;7.40;99.90
4697;DHT22;2362;50.780;0.292;2023-03-01T11:24:16;7.60;99.90
4697;DHT22;2362;50.780;0.292;2023-03-01T11:26:47;7.50;99.90
4697;DHT22;2362;50.780;0.292;2023-03-01T11:29:40;7.60;99.90
4697;DHT22;2362;50.780;0.292;2023-03-01T11:32:09;7.50;99.90
4697;DHT22;2362;50.780;0.292;2023-03-01T11:34:59;7.30;99.90
4697;DHT22;2362;50.780;0.292;2023-03-01T11:37:38;7.20;99.90
4697;DHT22;2362;50.780;0.292;2023-03-01T11:40:26;7.10;99.90
4697;DHT22;2362;50.780;0.292;2023-03-01T11:42:59;7.10;99.90
4697;DHT22;2362;50.780;0.292;2023-03-01T11:45:26;6.90;99.90
4697;DHT22;2362;50.780;0.292;2023-03-01T11:52:02;7.00;99.90
4697;DHT22;2362;50.780;0.292;2023-03-01T11:56:52;7.20;99.90
4697;DHT22;2362;50.780;0.292;2023-03-01T12:02:44;7.20;99.90
4697;DHT22;2362;50.780;0.292;2023-03-01T12:05:43;7.30;99.90
4697;DHT22;2362;50.780;0.292;2023-03-01T12:08:17;7.30;99.90
4697;DHT22;2362;50.780;0.292;2023-03-01T12:20:21;7.30;99.90
4697;DHT22;2362;50.780;0.292;2023-03-01T12:47:08;7.70;99.90
4697;DHT22;2362;50.780;0.292;2023-03-01T12:50:04;7.50;99.90
4697;DHT22;2362;50.780;0.292;2023-03-01T12:52:44;7.30;99.90
4697;DHT22;2362;50.780;0.292;2023-03-01T12:55:34;7.30;99.90
4697;DHT22;2362;50.780;0.292;2023-03-01T13:01:04;7.10;99.90
4697;DHT22;2362;50.780;0.292;2023-03-01T13:11:56;7.00;99.90
4697;DHT22;2362;50.780;0.292;2023-03-01T13:16:49;6.90;99.90
4697;DHT22;2362;50.780;0.292;2023-03-01T13:19:23;6.90;99.90
4697;DHT22;2362;50.780;0.292;2023-03-01T13:21:51;6.90;99.90
4697;DHT22;2362;50.780;0.292;2023-03-01T13:27:18;6.90;99.90
4697;DHT22;2362;50.780;0.292;2023-03-01T13:32:29;6.90;99.90
4697;DHT22;2362;50.780;0.292;2023-03-01T13:35:03;6.90;99.90
4697;DHT22;2362;50.780;0.292;2023-03-01T13:37:32;6.90;99.90
4697;DHT22;2362;50.780;0.292;2023-03-01T13:40:01;7.00;99.90
4697;DHT22;2362;50.780;0.292;2023-03-01T13:42:46;7.00;99.90
4697;DHT22;2362;50.780;0.292;2023-03-01T13:47:48;7.10;99.90
4697;DHT22;2362;50.780;0.292;2023-03-01T13:50:21;7.10;99.90
4697;DHT22;2362;50.780;0.292;2023-03-01T13:53:05;7.20;99.90
4697;DHT22;2362;50.780;0.292;2023-03-01T13:57:59;7.30;99.90
4697;DHT22;2362;50.780;0.292;2023-03-01T14:00:35;7.20;99.90
4697;DHT22;2362;50.780;0.292;2023-03-01T14:03:17;7.20;99.90
4697;DHT22;2362;50.780;0.292;2023-03-01T14:06:06;7.20;99.90
4697;DHT22;2362;50.780;0.292;2023-03-01T14:08:34;7.30;99.90
4697;DHT22;2362;50.780;0.292;2023-03-01T14:16:53;7.10;99.90
4697;DHT22;2362;50.780;0.292;2023-03-01T14:19:26;7.10;99.90
4697;DHT22;2362;50.780;0.292;2023-03-01T14:22:05;7.10;99.90
4697;DHT22;2362;50.780;0.292;2023-03-01T14:24:41;7.20;99.90
4697;DHT22;2362;50.780;0.292;2023-03-01T14:27:13;7.30;99.90
4697;DHT22;2362;50.780;0.292;2023-03-01T14:29:40;7.20;99.90
4697;DHT22;2362;50.780;0.292;2023-03-01T14:32:21;7.20;99.90
4697;DHT22;2362;50.780;0.292;2023-03-01T14:34:49;7.30;99.90
4697;DHT22;2362;50.780;0.292;2023-03-01T14:37:32;7.30;99.90
4697;DHT22;2362;50.780;0.292;2023-03-01T14:40:01;7.30;99.90
4697;DHT22;2362;50.780;0.292;2023-03-01T14:42:34;7.30;99.90
4697;DHT22;2362;50.780;0.292;2023-03-01T14:45:01;7.30;99.90
4697;DHT22;2362;50.780;0.292;2023-03-01T14:47:35;7.40;99.90
4697;DHT22;2362;50.780;0.292;2023-03-01T14:50:07;7.40;99.90
4697;DHT22;2362;50.780;0.292;2023-03-01T14:52:38;7.40;99.90
4697;DHT22;2362;50.780;0.292;2023-03-01T14:55:07;7.40;99.90
4697;DHT22;2362;50.780;0.292;2023-03-01T14:57:43;7.40;99.90
4697;DHT22;2362;50.780;0.292;2023-03-01T15:00:18;7.40;99.90
4697;DHT22;2362;50.780;0.292;2023-03-01T15:02:47;7.40;99.90
4697;DHT22;2362;50.780;0.292;2023-03-01T15:05:14;7.40;99.90
4697;DHT22;2362;50.780;0.292;2023-03-01T15:07:42;7.30;99.90
4697;DHT22;2362;50.780;0.292;2023-03-01T15:10:32;7.20;99.90
4697;DHT22;2362;50.780;0.292;2023-03-01T15:13:11;7.20;99.90
4697;DHT22;2362;50.780;0.292;2023-03-01T15:15:47;7.20;99.90
4697;DHT22;2362;50.780;0.292;2023-03-01T15:18:21;7.20;99.90
4697;DHT22;2362;50.780;0.292;2023-03-01T15:20:48;7.10;99.90
4697;DHT22;2362;50.780;0.292;2023-03-01T15:23:29;7.10;99.90
4697;DHT22;2362;50.780;0.292;2023-03-01T15:25:56;7.00;99.90
4697;DHT22;2362;50.780;0.292;2023-03-01T15:28:49;7.10;99.90
4697;DHT22;2362;50.780;0.292;2023-03-01T15:31:25;7.10;99.90
4697;DHT22;2362;50.780;0.292;2023-03-01T15:33:52;7.20;99.90
4697;DHT22;2362;50.780;0.292;2023-03-01T15:39:02;7.30;99.90
4697;DHT22;2362;50.780;0.292;2023-03-01T15:41:46;7.20;99.90
4697;DHT22;2362;50.780;0.292;2023-03-01T15:44:34;7.20;99.90
4697;DHT22;2362;50.780;0.292;2023-03-01T15:47:00;7.10;99.90
4697;DHT22;2362;50.780;0.292;2023-03-01T15:49:41;7.10;99.90
4697;DHT22;2362;50.780;0.292;2023-03-01T15:52:23;7.10;99.90
4697;DHT22;2362;50.780;0.292;2023-03-01T15:55:06;7.10;99.90
4697;DHT22;2362;50.780;0.292;2023-03-01T15:57:39;7.10;99.90
4697;DHT22;2362;50.780;0.292;2023-03-01T16:00:05;7.10;99.90
4697;DHT22;2362;50.780;0.292;2023-03-01T16:02:37;7.10;99.90
4697;DHT22;2362;50.780;0.292;2023-03-01T16:05:03;7.00;99.90
4697;DHT22;2362;50.780;0.292;2023-03-01T16:07:29;7.10;99.90
4697;DHT22;2362;50.780;0.292;2023-03-01T16:09:57;7.00;99.90
4697;DHT22;2362;50.780;0.292;2023-03-01T16:12:23;7.00;99.90
4697;DHT22;2362;50.780;0.292;2023-03-01T16:14:49;7.00;99.90
4697;DHT22;2362;50.780;0.292;2023-03-01T16:17:15;7.00;99.90
4697;DHT22;2362;50.780;0.292;2023-03-01T16:19:41;7.00;99.90
4697;DHT22;2362;50.780;0.292;2023-03-01T16:22:08;7.00;99.90
4697;DHT22;2362;50.780;0.292;2023-03-01T16:24:34;7.00;99.90
4697;DHT22;2362;50.780;0.292;2023-03-01T16:27:01;6.90;99.90
4697;DHT22;2362;50.780;0.292;2023-03-01T16:29:27;7.00;99.90
4697;DHT22;2362;50.780;0.292;2023-03-01T16:31:54;7.00;99.90
4697;DHT22;2362;50.780;0.292;2023-03-01T16:34:20;7.00;99.90
4697;DHT22;2362;50.780;0.292;2023-03-01T16:36:47;7.00;99.90
4697;DHT22;2362;50.780;0.292;2023-03-01T16:39:13;7.00;99.90
4697;DHT22;2362;50.780;0.292;2023-03-01T16:41:38;6.90;99.90
4697;DHT22;2362;50.780;0.292;2023-03-01T16:44:04;6.90;99.90
4697;DHT22;2362;50.780;0.292;2023-03-01T16:46:30;6.80;99.90
4697;DHT22;2362;50.780;0.292;2023-03-01T16:48:56;6.70;99.90
4697;DHT22;2362;50.780;0.292;2023-03-01T16:51:22;6.60;99.90
4697;DHT22;2362;50.780;0.292;2023-03-01T16:53:49;6.60;99.90
4697;DHT22;2362;50.780;0.292;2023-03-01T16:56:15;6.60;99.90
4697;DHT22;2362;50.780;0.292;2023-03-01T16:58:41;6.60;99.90
4697;DHT22;2362;50.780;0.292;2023-03-01T17:01:16;6.60;99.90
4697;DHT22;2362;50.780;0.292;2023-03-01T17:03:43;6.60;99.90
4697;DHT22;2362;50.780;0.292;2023-03-01T17:06:12;6.50;99.90
4697;DHT22;2362;50.780;0.292;2023-03-01T17:08:38;6.50;99.90
4697;DHT22;2362;50.780;0.292;2023-03-01T17:11:15;6.60;99.90
4697;DHT22;2362;50.780;0.292;2023-03-01T17:13:41;6.50;99.90
4697;DHT22;2362;50.780;0.292;2023-03-01T17:16:09;6.50;99.90
4697;DHT22;2362;50.780;0.292;2023-03-01T17:18:36;6.40;99.90
4697;DHT22;2362;50.780;0.292;2023-03-01T17:21:02;6.30;99.90
4697;DHT22;2362;50.780;0.292;2023-03-01T17:23:30;6.30;99.90
4697;DHT22;2362;50.780;0.292;2023-03-01T17:25:57;6.20;99.90
4697;DHT22;2362;50.780;0.292;2023-03-01T17:28:25;6.10;99.90
4697;DHT22;2362;50.780;0.292;2023-03-01T17:30:51;6.10;99.90
4697;DHT22;2362;50.780;0.292;2023-03-01T17:33:17;6.00;99.90
4697;DHT22;2362;50.780;0.292;2023-03-01T17:35:43;6.00;99.90
4697;DHT22;2362;50.780;0.292;2023-03-01T17:38:12;5.90;99.90
4697;DHT22;2362;50.780;0.292;2023-03-01T17:40:38;5.90;99.90
4697;DHT22;2362;50.780;0.292;2023-03-01T17:43:04;5.80;99.90
4697;DHT22;2362;50.780;0.292;2023-03-01T17:45:30;5.70;99.90
4697;DHT22;2362;50.780;0.292;2023-03-01T17:47:55;5.60;99.90
4697;DHT22;2362;50.780;0.292;2023-03-01T17:50:21;5.50;99.90
4697;DHT22;2362;50.780;0.292;2023-03-01T17:52:47;5.50;99.90
4697;DHT22;2362;50.780;0.292;2023-03-01T17:55:12;5.50;99.90
4697;DHT22;2362;50.780;0.292;2023-03-01T17:57:39;5.40;99.90
4697;DHT22;2362;50.780;0.292;2023-03-01T18:00:08;5.40;99.90
4697;DHT22;2362;50.780;0.292;2023-03-01T18:02:34;5.40;99.90
4697;DHT22;2362;50.780;0.292;2023-03-01T18:04:59;5.30;99.90
4697;DHT22;2362;50.780;0.292;2023-03-01T18:07:26;5.30;99.90
4697;DHT22;2362;50.780;0.292;2023-03-01T18:09:52;5.20;99.90
4697;DHT22;2362;50.780;0.292;2023-03-01T18:12:18;5.10;99.90
4697;DHT22;2362;50.780;0.292;2023-03-01T18:14:43;5.10;99.90
4697;DHT22;2362;50.780;0.292;2023-03-01T18:17:09;5.00;99.90
4697;DHT22;2362;50.780;0.292;2023-03-01T18:19:38;5.00;99.90
4697;DHT22;2362;50.780;0.292;2023-03-01T18:22:06;5.00;99.90